Anglogold Ashanti Obuasi Mine Helipad

GH-0006 · Ashanti, 加纳

METAR GH-0006 · Anglogold Ashanti Obuasi Mine Helipad

22 七月 03:00 LT
1h
使用的METAR站距离机场180 km。
罗盘
风向 的 风向 230° 直升机
风: 6 kt, 2 beaufort
0 ft 1.000 2.000 3.000 4.000 5.000
Cloud Cloud Cloud Cloud Cloud Cloud
BKN 1.200
METAR DGAA 220300Z 23006KT 9999 BKN012 24/23 Q1015 NOSIG

METAR Anglogold Ashanti Obuasi Mine Helipad - GH-0006

Anglogold Ashanti Obuasi Mine Helipad是,加纳中的直升机场。 该机场位于纬度6,17186和经度-1,69351。 这个机场没有ICAO代码,我们使用GH-0006作为参考。 机场在Accra FIR中。

该航空气象观测是针对科托卡国际机场在2024年7月22日 03:00, 当地时间进行的。

机场观察

风向为230°,速度为6 kt。

可见度为10 km 或者更多。

有碎云在1.200 ft的高度。 破损或更高的上限为1.200 ft。

温度和风寒是24 °C。 露点为23 °C,相对湿度为94%。 海平面上的气压为1015 hPa (QNH)。

白天

今天,太阳从06:00升起,在18:25降落。 这适用于Anglogold Ashanti Obuasi Mine Helipad,世界夏令时可能有所不同。 当地时间与世界标准时间之间的时差为+0 小时。 夏令时目前正在进行中。

公司介绍

我们没有关于这个机场的公司信息。

体会

到Vliegles.nl去找飞行课程,跳伞和其他飞行体验。 浏览页面,了解Anglogold Ashanti Obuasi Mine Helipad附近所有可用的活动。 你也可以使用搜索功能来寻找你所在地附近的特定飞行课程、跳伞或其他飞行体验。

乌云

1.200 ft BKN 碎云

温度 & 天气

温度 24 °C
露点 23 °C
相对湿度 94%
Kp-index 0 (0-9)

白天

日出
05:55 (1:40)
中午
12:07
日落
18:19

小工具

你想在你的网站上有一个关于Anglogold Ashanti Obuasi Mine Helipad的当前航空天气(METAR)的小部件吗?

显示HTML代码
报告变更